Time;durP1;ratioP1;P1;durP2;ratioP2;P2;SDS_P1;SDS_P2;PMS_P1;PMS_P2;Temp;Humidity;BMP_temperature;BMP_pressure;BME280_temperature;BME280_humidity;BME280_pressure;Samples;Min_cycle;Max_cycle;Signal;HPM_P1;HPM_P2
2023/08/13 00:01:55;;;;;;;12.50;8.10;;;;;;;20.66;100.00;100898.97;5010777;28;20064;-66
2023/08/13 00:04:23;;;;;;;17.20;14.77;;;;;;;20.68;100.00;100899.69;5028184;28;20057;-67
2023/08/13 00:06:51;;;;;;;21.95;19.50;;;;;;;20.64;100.00;100895.63;4995637;28;20042;-66
2023/08/13 00:09:20;;;;;;;8.38;4.35;;;;;;;20.60;100.00;100897.75;5030937;28;20148;-68
2023/08/13 00:11:48;;;;;;;6.78;3.10;;;;;;;20.57;100.00;100902.53;5027557;28;20049;-78
2023/08/13 00:14:18;;;;;;;10.90;3.22;;;;;;;20.54;100.00;100897.50;5008511;28;20041;-65
2023/08/13 00:16:47;;;;;;;4.22;2.50;;;;;;;20.51;100.00;100908.50;4994870;28;20145;-66
2023/08/13 00:19:15;;;;;;;3.50;2.70;;;;;;;20.46;100.00;100909.75;5030609;28;20190;-65
2023/08/13 00:21:42;;;;;;;6.63;3.08;;;;;;;20.37;100.00;100912.47;5028615;28;20061;-66
2023/08/13 00:24:29;;;;;;;2.38;2.15;;;;;;;20.34;100.00;100915.41;5033403;28;20049;-66
2023/08/13 00:26:57;;;;;;;5.25;2.60;;;;;;;20.31;100.00;100916.56;5017234;28;20067;-67
2023/08/13 00:29:24;;;;;;;4.00;2.70;;;;;;;20.27;100.00;100922.34;5034022;28;20504;-65
2023/08/13 00:31:54;;;;;;;4.30;3.13;;;;;;;20.27;100.00;100925.88;5030014;28;20473;-66
2023/08/13 00:34:22;;;;;;;4.85;2.58;;;;;;;20.25;100.00;100933.19;4997599;28;20461;-64
2023/08/13 00:36:49;;;;;;;5.22;2.25;;;;;;;20.23;100.00;100933.34;5029663;28;20049;-66
2023/08/13 00:39:18;;;;;;;2.90;2.38;;;;;;;20.15;100.00;100933.22;5030806;28;20095;-65
2023/08/13 00:41:45;;;;;;;4.65;2.75;;;;;;;20.09;100.00;100928.44;5039790;28;20125;-65
2023/08/13 00:44:12;;;;;;;4.38;3.22;;;;;;;20.05;100.00;100932.41;5035191;28;20098;-65
2023/08/13 00:46:40;;;;;;;3.33;2.42;;;;;;;20.00;100.00;100931.16;5036628;28;20454;-65
2023/08/13 00:49:08;;;;;;;3.15;2.55;;;;;;;19.99;100.00;100927.63;5038374;28;20114;-65
2023/08/13 00:51:40;;;;;;;3.20;2.47;;;;;;;19.96;100.00;100926.09;5017006;28;20073;-66
2023/08/13 00:54:08;;;;;;;2.80;2.47;;;;;;;19.93;100.00;100929.03;5007655;28;20148;-65
2023/08/13 00:56:36;;;;;;;2.92;2.53;;;;;;;19.90;100.00;100931.16;5039514;28;20057;-66
2023/08/13 00:59:04;;;;;;;6.30;3.10;;;;;;;19.87;100.00;100947.47;5017047;28;20073;-66
2023/08/13 01:01:33;;;;;;;3.58;2.55;;;;;;;19.82;100.00;100950.59;4997668;28;20085;-65
2023/08/13 01:04:00;;;;;;;2.92;2.55;;;;;;;19.79;100.00;100947.34;5036612;28;20094;-66
2023/08/13 01:06:49;;;;;;;5.03;2.85;;;;;;;19.75;100.00;100954.78;5017523;28;20456;-65
2023/08/13 01:09:26;;;;;;;3.25;2.70;;;;;;;19.71;100.00;100956.91;5019331;28;20077;-65
2023/08/13 01:12:03;;;;;;;3.75;2.78;;;;;;;19.70;100.00;100963.22;5036975;28;20045;-63
2023/08/13 01:14:52;;;;;;;4.68;3.03;;;;;;;19.63;100.00;100967.47;5017639;28;20053;-66
2023/08/13 01:17:22;;;;;;;5.38;3.10;;;;;;;19.60;100.00;100972.22;5034569;28;20057;-65
2023/08/13 01:19:49;;;;;;;4.47;2.65;;;;;;;19.59;100.00;100967.84;5022908;28;20128;-66
2023/08/13 01:22:24;;;;;;;3.67;2.40;;;;;;;19.59;100.00;100975.88;5018204;28;20571;-65
2023/08/13 01:24:51;;;;;;;;;;;;;;;19.57;100.00;100973.31;5017091;28;21009;-65
2023/08/13 01:27:32;;;;;;;4.72;2.90;;;;;;;19.54;100.00;100972.75;5031425;28;19971;-66
2023/08/13 01:30:14;;;;;;;4.03;3.15;;;;;;;19.53;100.00;100973.75;5001267;28;20130;-66
2023/08/13 01:32:58;;;;;;;2.60;2.40;;;;;;;19.55;100.00;100988.66;5023733;28;20114;-67
2023/08/13 01:35:26;;;;;;;5.57;2.95;;;;;;;19.56;100.00;100984.16;5020480;28;20058;-67
2023/08/13 01:37:54;;;;;;;6.07;3.47;;;;;;;19.55;100.00;100980.66;5019006;28;20061;-67
2023/08/13 01:40:22;;;;;;;6.20;3.78;;;;;;;19.57;100.00;100983.16;5033002;28;20052;-66
2023/08/13 01:42:49;;;;;;;4.03;3.63;;;;;;;19.59;100.00;100986.56;5019816;28;20662;-66
2023/08/13 01:45:17;;;;;;;3.50;3.10;;;;;;;19.61;100.00;100981.94;5031893;28;20073;-67
2023/08/13 01:47:45;;;;;;;6.50;3.47;;;;;;;19.65;100.00;100986.00;5030066;28;20091;-65
2023/08/13 01:50:13;;;;;;;3.25;2.95;;;;;;;19.67;100.00;100984.03;4995660;28;20192;-66
2023/08/13 01:52:40;;;;;;;5.63;3.80;;;;;;;19.66;100.00;100980.53;5012227;28;20139;-66
2023/08/13 01:55:08;;;;;;;3.90;2.88;;;;;;;19.69;100.00;100992.75;5029116;28;20049;-66
2023/08/13 01:57:35;;;;;;;3.38;3.08;;;;;;;19.71;100.00;100996.13;5037414;28;20107;-66
2023/08/13 02:00:03;;;;;;;4.70;3.05;;;;;;;19.77;100.00;100995.59;5029678;28;20053;-65
2023/08/13 02:02:31;;;;;;;6.03;3.25;;;;;;;19.78;100.00;100999.09;5018395;28;20053;-64
2023/08/13 02:04:59;;;;;;;4.18;3.55;;;;;;;19.80;100.00;101002.47;5021142;28;20050;-66
2023/08/13 02:07:26;;;;;;;4.47;3.63;;;;;;;19.80;100.00;100997.13;5032310;28;20068;-66
2023/08/13 02:09:54;;;;;;;4.38;3.40;;;;;;;19.78;100.00;101001.78;5015260;28;20315;-67
2023/08/13 02:12:21;;;;;;;4.10;3.03;;;;;;;19.75;100.00;101002.03;5033960;28;20054;-67
2023/08/13 02:14:49;;;;;;;4.70;2.90;;;;;;;19.75;100.00;101002.88;5030673;28;20045;-66
2023/08/13 02:17:17;;;;;;;5.00;2.90;;;;;;;19.73;100.00;100994.19;5015061;28;20053;-67
2023/08/13 02:19:45;;;;;;;8.48;3.63;;;;;;;19.70;100.00;100995.28;4997511;28;20049;-66
2023/08/13 02:22:12;;;;;;;5.63;3.25;;;;;;;19.71;100.00;100994.28;5029874;28;20123;-67
2023/08/13 02:24:40;;;;;;;5.82;3.10;;;;;;;19.69;100.00;100998.09;5034120;28;20057;-67
2023/08/13 02:27:07;;;;;;;3.65;3.13;;;;;;;19.68;100.00;101009.78;5003774;28;20584;-67
2023/08/13 02:29:35;;;;;;;4.90;3.40;;;;;;;19.62;100.00;101011.16;5023155;28;20148;-66
2023/08/13 02:32:04;;;;;;;6.22;3.40;;;;;;;19.59;100.00;101008.75;5021780;28;20054;-67
2023/08/13 02:34:33;;;;;;;5.97;3.70;;;;;;;19.58;100.00;101014.22;5000447;28;20079;-66
2023/08/13 02:37:01;;;;;;;3.63;3.22;;;;;;;19.56;100.00;101014.38;5015145;28;20053;-66
2023/08/13 02:39:28;;;;;;;5.00;3.55;;;;;;;19.52;100.00;101015.63;5030880;28;20080;-66
2023/08/13 02:41:57;;;;;;;4.60;3.42;;;;;;;19.44;100.00;101016.31;5037115;28;20049;-66
2023/08/13 02:44:26;;;;;;;5.53;3.40;;;;;;;19.40;100.00;101014.06;5027883;28;20540;-67
2023/08/13 02:46:53;;;;;;;3.70;3.35;;;;;;;19.35;100.00;101019.81;5017973;28;20045;-67
2023/08/13 02:49:21;;;;;;;3.40;2.65;;;;;;;19.31;100.00;101018.38;5038564;28;20099;-67
2023/08/13 02:51:48;;;;;;;3.40;3.10;;;;;;;19.28;100.00;101020.50;5036598;28;20520;-67
2023/08/13 02:54:15;;;;;;;5.32;3.05;;;;;;;19.22;100.00;101029.88;5029433;28;20095;-66
2023/08/13 02:56:43;;;;;;;3.33;2.85;;;;;;;19.17;100.00;101027.63;5003458;28;20535;-66
2023/08/13 02:59:10;;;;;;;3.95;2.78;;;;;;;19.12;100.00;101026.34;5030921;28;20046;-66
2023/08/13 03:01:38;;;;;;;3.30;3.00;;;;;;;19.07;100.00;101034.78;5011681;28;20087;-66
2023/08/13 03:04:06;;;;;;;6.05;3.13;;;;;;;19.03;100.00;101033.34;5000940;28;20148;-66
2023/08/13 03:06:34;;;;;;;6.25;3.28;;;;;;;19.03;100.00;101041.34;5029397;28;20083;-67
2023/08/13 03:09:01;;;;;;;6.03;3.30;;;;;;;19.01;100.00;101037.16;5032576;28;20045;-66
2023/08/13 03:11:28;;;;;;;4.63;3.17;;;;;;;18.99;100.00;101026.59;5031252;28;20053;-67
2023/08/13 03:13:56;;;;;;;4.45;2.75;;;;;;;18.95;100.00;101026.00;5028484;28;20136;-66
2023/08/13 03:16:23;;;;;;;7.28;3.58;;;;;;;18.94;100.00;101020.81;5018778;28;20056;-66
2023/08/13 03:18:51;;;;;;;4.15;2.72;;;;;;;18.90;100.00;101036.25;5017129;28;20054;-65
2023/08/13 03:24:59;;;;;;;4.78;3.30;;;;;;;18.78;100.00;101031.13;5031363;28;20095;-65
2023/08/13 03:27:27;;;;;;;3.60;3.05;;;;;;;18.76;100.00;101033.94;5013619;28;20049;-65
2023/08/13 03:29:54;;;;;;;3.67;2.63;;;;;;;18.76;100.00;101046.44;5018569;28;20076;-66
2023/08/13 03:32:22;;;;;;;4.82;3.33;;;;;;;18.73;100.00;101047.53;5014943;28;20049;-66
2023/08/13 03:34:49;;;;;;;3.38;2.88;;;;;;;18.70;100.00;101043.31;5031121;28;20427;-66
2023/08/13 03:37:16;;;;;;;5.07;2.63;;;;;;;18.67;100.00;101043.53;5022084;28;20053;-65
2023/08/13 03:39:44;;;;;;;6.93;2.97;;;;;;;18.66;100.00;101047.19;4998750;28;20049;-66
2023/08/13 03:42:11;;;;;;;4.85;3.03;;;;;;;18.65;100.00;101044.69;5020998;28;20049;-66
2023/08/13 03:44:41;;;;;;;3.65;2.72;;;;;;;18.64;100.00;101045.63;5003489;28;20389;-66
2023/08/13 03:47:08;;;;;;;4.47;2.85;;;;;;;18.63;100.00;101049.28;5024501;28;20053;-66
2023/08/13 03:49:36;;;;;;;3.72;3.15;;;;;;;18.62;100.00;101053.78;5026789;28;20075;-66
2023/08/13 03:52:03;;;;;;;6.15;3.33;;;;;;;18.62;100.00;101047.59;5019713;28;20061;-67
2023/08/13 03:54:31;;;;;;;6.93;3.42;;;;;;;18.61;100.00;101052.09;5020627;28;20119;-66
2023/08/13 03:56:59;;;;;;;5.55;3.13;;;;;;;18.60;100.00;101050.41;5016248;28;20107;-65
2023/08/13 03:59:26;;;;;;;4.47;3.15;;;;;;;18.60;100.00;101052.22;5033181;28;20107;-65
2023/08/13 04:01:53;;;;;;;6.20;2.97;;;;;;;18.60;100.00;101055.75;5008456;28;20053;-64
2023/08/13 04:04:21;;;;;;;2.70;2.50;;;;;;;18.62;100.00;101056.44;5031759;28;20080;-65
2023/08/13 04:06:48;;;;;;;4.00;2.92;;;;;;;18.62;100.00;101063.59;5030974;28;20065;-65
2023/08/13 04:09:16;;;;;;;8.13;3.15;;;;;;;18.63;100.00;101067.94;5030418;28;20475;-66
2023/08/13 04:11:44;;;;;;;5.40;2.72;;;;;;;18.61;100.00;101075.25;5019415;28;20060;-65
2023/08/13 04:14:11;;;;;;;5.75;3.33;;;;;;;18.63;100.00;101078.59;5032058;28;20049;-67
2023/08/13 04:16:41;;;;;;;4.75;2.78;;;;;;;18.64;100.00;101085.63;5026818;28;20158;-65
2023/08/13 04:19:08;;;;;;;4.28;2.42;;;;;;;18.67;100.00;101080.03;5028901;28;20085;-64
2023/08/13 04:21:43;;;;;;;4.22;2.88;;;;;;;18.66;100.00;101081.88;5031733;28;20057;-66
2023/08/13 04:24:10;;;;;;;5.22;2.95;;;;;;;18.68;100.00;101077.22;5034030;28;20045;-65
2023/08/13 04:26:38;;;;;;;4.95;2.92;;;;;;;18.74;100.00;101075.91;5032802;28;20136;-65
2023/08/13 04:29:05;;;;;;;5.80;3.70;;;;;;;18.76;100.00;101079.28;5011620;28;20044;-64
2023/08/13 04:31:33;;;;;;;6.45;3.45;;;;;;;18.81;100.00;101074.38;5012298;28;20084;-66
2023/08/13 04:34:00;;;;;;;7.65;3.08;;;;;;;18.85;100.00;101073.16;4992149;28;20041;-64
2023/08/13 04:36:28;;;;;;;5.82;2.95;;;;;;;18.85;100.00;101078.47;5031442;28;20053;-67
2023/08/13 04:38:55;;;;;;;3.20;2.90;;;;;;;18.89;100.00;101081.75;4996521;28;20076;-65
2023/08/13 04:41:23;;;;;;;3.22;2.67;;;;;;;18.90;100.00;101083.41;5012887;28;20095;-65
2023/08/13 04:43:50;;;;;;;4.13;3.20;;;;;;;18.94;100.00;101079.50;5011206;28;20045;-66
2023/08/13 04:46:17;;;;;;;5.78;3.50;;;;;;;18.95;100.00;101083.88;5011342;28;20496;-68
2023/08/13 04:48:46;;;;;;;4.90;3.30;;;;;;;18.99;100.00;101082.63;5008838;28;20103;-67
2023/08/13 04:51:16;;;;;;;7.90;3.72;;;;;;;18.98;100.00;101076.44;5011938;28;20096;-68
2023/08/13 04:53:44;;;;;;;7.85;3.33;;;;;;;19.05;100.00;101081.22;5010510;28;20042;-66
2023/08/13 04:56:12;;;;;;;3.17;2.60;;;;;;;19.14;100.00;101085.78;4993988;28;20119;-66
2023/08/13 04:58:39;;;;;;;4.60;2.25;;;;;;;19.18;100.00;101087.19;5012730;28;20098;-65
2023/08/13 05:01:07;;;;;;;6.43;2.45;;;;;;;19.30;100.00;101085.28;5025109;28;20057;-65
2023/08/13 05:03:34;;;;;;;9.20;3.05;;;;;;;19.28;100.00;101079.25;5035623;28;20057;-66
2023/08/13 05:06:02;;;;;;;6.65;2.72;;;;;;;19.36;100.00;101092.72;5010579;28;20058;-68
2023/08/13 05:08:29;;;;;;;7.28;2.53;;;;;;;19.40;100.00;101092.31;5024714;28;20127;-67
2023/08/13 05:10:56;;;;;;;5.15;2.33;;;;;;;19.41;100.00;101095.88;5030932;28;20446;-65
2023/08/13 05:13:24;;;;;;;5.25;2.47;;;;;;;19.54;100.00;101098.25;5030280;28;20084;-67
2023/08/13 05:15:51;;;;;;;6.00;3.13;;;;;;;19.56;100.00;101099.00;5028539;28;20099;-67
2023/08/13 05:18:18;;;;;;;6.40;2.45;;;;;;;19.61;100.00;101100.28;5029346;28;20046;-67
2023/08/13 05:20:46;;;;;;;4.15;2.30;;;;;;;19.60;100.00;101097.72;5031273;28;20137;-67
2023/08/13 05:26:55;;;;;;;4.72;2.38;;;;;;;19.84;100.00;101098.22;5035233;28;20121;-65
2023/08/13 05:29:23;;;;;;;9.40;2.75;;;;;;;19.92;100.00;101087.69;5013467;28;20480;-64
2023/08/13 05:31:50;;;;;;;5.22;1.98;;;;;;;20.08;100.00;101092.47;5029610;28;20447;-66
2023/08/13 05:34:18;;;;;;;8.57;2.65;;;;;;;20.17;96.94;101098.78;5021065;28;20056;-66
2023/08/13 05:36:45;;;;;;;7.10;2.58;;;;;;;20.24;96.57;101106.13;5029906;28;20041;-65
2023/08/13 05:39:12;;;;;;;6.63;2.47;;;;;;;20.32;97.14;101104.56;5031958;28;20064;-66
2023/08/13 05:41:40;;;;;;;5.32;2.63;;;;;;;20.39;95.87;101101.16;5018988;28;20304;-66
2023/08/13 05:44:07;;;;;;;6.78;2.50;;;;;;;20.47;96.33;101111.16;5019200;28;20049;-66
2023/08/13 05:46:34;;;;;;;3.88;2.05;;;;;;;20.55;95.44;101115.84;5017510;28;20630;-65
2023/08/13 05:49:02;;;;;;;5.32;2.30;;;;;;;20.50;94.54;101110.06;5031244;28;20069;-65
2023/08/13 05:51:29;;;;;;;5.28;2.40;;;;;;;20.53;94.63;101117.78;5020386;28;20126;-65
2023/08/13 05:53:57;;;;;;;4.70;2.28;;;;;;;20.60;94.56;101118.94;5032779;28;20048;-66
2023/08/13 05:56:25;;;;;;;6.35;2.17;;;;;;;20.65;93.84;101120.16;5021254;28;20087;-65
2023/08/13 05:58:52;;;;;;;3.78;2.15;;;;;;;20.72;93.37;101126.66;5037016;28;20053;-65
2023/08/13 06:01:20;;;;;;;7.45;2.70;;;;;;;20.76;92.18;101115.63;5030748;28;20467;-65
2023/08/13 06:03:47;;;;;;;5.55;2.05;;;;;;;20.71;92.17;101113.41;5022598;28;20071;-65
2023/08/13 06:06:15;;;;;;;7.65;2.55;;;;;;;20.71;92.08;101110.72;5020150;28;20061;-68
2023/08/13 06:08:43;;;;;;;5.65;2.65;;;;;;;20.75;91.46;101114.81;5029439;28;20053;-66
2023/08/13 06:11:10;;;;;;;11.40;3.08;;;;;;;20.74;91.11;101122.00;5013214;28;20084;-67
2023/08/13 06:13:38;;;;;;;8.23;2.92;;;;;;;20.72;90.15;101128.50;5036769;28;20090;-65
2023/08/13 06:16:06;;;;;;;9.55;2.92;;;;;;;20.73;89.04;101132.84;5012974;28;20516;-65
2023/08/13 06:18:34;;;;;;;7.57;2.90;;;;;;;20.69;88.54;101132.28;5033392;28;20098;-66
2023/08/13 06:21:03;;;;;;;7.15;2.60;;;;;;;20.65;87.16;101130.03;5027434;28;20577;-65
2023/08/13 06:23:31;;;;;;;5.75;2.67;;;;;;;20.65;87.13;101136.22;4996909;28;20104;-66
2023/08/13 06:25:58;;;;;;;5.20;2.30;;;;;;;20.67;86.59;101136.09;5031548;28;20109;-65
2023/08/13 06:28:26;;;;;;;5.88;2.67;;;;;;;20.69;85.45;101137.63;5018479;28;20075;-65
2023/08/13 06:30:54;;;;;;;7.95;2.22;;;;;;;20.70;84.61;101142.00;5036148;28;20396;-65
2023/08/13 06:33:21;;;;;;;10.30;2.10;;;;;;;20.85;83.67;101141.53;5016508;28;20556;-66
2023/08/13 06:35:49;;;;;;;5.55;2.10;;;;;;;20.98;82.92;101139.38;5036798;28;20088;-65
2023/08/13 06:38:17;;;;;;;7.50;2.42;;;;;;;21.29;82.25;101139.97;5016251;28;20099;-65
2023/08/13 06:40:44;;;;;;;4.53;1.90;;;;;;;21.57;81.55;101142.69;5028582;28;20049;-65
2023/08/13 06:43:12;;;;;;;5.35;2.30;;;;;;;21.80;79.61;101137.81;5011742;28;20405;-65
2023/08/13 06:45:39;;;;;;;7.60;2.72;;;;;;;21.95;76.27;101137.13;5002562;28;20041;-67
2023/08/13 06:48:08;;;;;;;8.10;2.72;;;;;;;22.09;75.14;101135.75;5025042;28;23021;-65
2023/08/13 06:50:36;;;;;;;8.30;2.88;;;;;;;22.28;74.36;101141.97;5022585;28;20103;-65
2023/08/13 06:53:04;;;;;;;8.02;2.22;;;;;;;22.08;71.11;101143.94;5032500;28;20049;-66
2023/08/13 06:55:31;;;;;;;6.90;2.25;;;;;;;22.34;72.42;101139.53;5031301;28;20171;-64
2023/08/13 06:57:59;;;;;;;7.22;2.20;;;;;;;22.54;72.23;101134.84;5014857;28;20049;-65
2023/08/13 07:00:26;;;;;;;5.45;2.30;;;;;;;22.58;71.77;101138.06;5033284;28;20119;-66
2023/08/13 07:03:06;;;;;;;5.65;2.80;;;;;;;22.53;71.24;101130.47;5030959;28;20114;-67
2023/08/13 07:05:59;;;;;;;9.95;2.90;;;;;;;22.46;70.28;101127.56;5014807;28;20141;-68
2023/08/13 07:08:26;;;;;;;10.23;2.85;;;;;;;22.40;70.34;101135.38;5017555;28;20097;-68
2023/08/13 07:10:54;;;;;;;6.40;2.28;;;;;;;22.31;69.45;101128.28;4980752;28;20050;-67
2023/08/13 07:13:21;;;;;;;7.93;2.40;;;;;;;22.19;66.77;101133.00;5033702;28;20508;-67
2023/08/13 07:15:49;;;;;;;8.27;2.38;;;;;;;22.12;67.87;101135.47;5040777;28;20171;-65
2023/08/13 07:18:16;;;;;;;8.40;2.90;;;;;;;22.02;69.50;101144.53;5030883;28;20083;-66
2023/08/13 07:20:44;;;;;;;5.85;2.25;;;;;;;22.07;69.50;101148.47;5029673;28;20393;-64
2023/08/13 07:23:11;;;;;;;20.15;2.85;;;;;;;22.28;68.66;101152.72;5013626;28;20061;-67
2023/08/13 07:25:39;;;;;;;6.65;2.25;;;;;;;22.31;66.78;101149.72;5030075;28;20483;-65
2023/08/13 07:28:06;;;;;;;8.07;2.55;;;;;;;22.34;65.87;101152.94;5035525;28;20455;-65
2023/08/13 07:30:58;;;;;;;8.23;2.05;;;;;;;22.33;66.75;101153.09;5033719;28;20068;-65
2023/08/13 07:33:26;;;;;;;5.10;1.88;;;;;;;22.62;66.36;101151.00;5011699;28;20578;-66
2023/08/13 07:35:53;;;;;;;7.03;2.53;;;;;;;22.78;65.46;101142.22;5036307;28;20095;-66
2023/08/13 07:38:20;;;;;;;4.75;1.83;;;;;;;22.97;65.10;101146.59;5019291;28;20064;-66
2023/08/13 07:40:48;;;;;;;7.07;2.50;;;;;;;23.04;63.86;101153.00;5015251;28;20099;-66
2023/08/13 07:43:15;;;;;;;9.48;2.88;;;;;;;22.83;64.63;101149.78;5000670;28;20061;-68
2023/08/13 07:45:43;;;;;;;7.00;2.38;;;;;;;22.91;65.15;101149.88;5036863;28;20064;-67
2023/08/13 07:48:11;;;;;;;9.27;2.63;;;;;;;23.07;61.70;101150.00;5033427;28;20061;-65
2023/08/13 07:50:40;;;;;;;8.52;2.95;;;;;;;23.04;60.96;101153.00;5031251;28;20049;-66
2023/08/13 07:53:07;;;;;;;8.30;2.50;;;;;;;23.13;60.78;101159.25;5006638;28;20457;-66
2023/08/13 07:55:35;;;;;;;14.65;2.50;;;;;;;23.34;59.36;101156.19;5027964;28;20220;-65
2023/08/13 07:58:03;;;;;;;6.70;2.30;;;;;;;23.29;59.22;101153.97;5012024;28;20092;-65
2023/08/13 08:00:30;;;;;;;6.22;2.60;;;;;;;23.55;59.83;101159.31;5017769;28;20065;-66
2023/08/13 08:02:58;;;;;;;19.55;4.03;;;;;;;23.74;59.52;101161.75;5030979;28;20137;-66
2023/08/13 08:05:25;;;;;;;5.63;2.47;;;;;;;23.78;58.73;101164.97;5038543;28;20454;-65
2023/08/13 08:07:53;;;;;;;7.78;2.13;;;;;;;23.87;58.68;101165.84;5025210;28;20049;-68
2023/08/13 08:10:20;;;;;;;6.93;2.40;;;;;;;23.67;58.76;101165.25;5012563;28;20088;-67
2023/08/13 08:12:48;;;;;;;6.50;2.30;;;;;;;23.68;59.62;101164.25;5011816;28;20053;-67
2023/08/13 08:15:15;;;;;;;7.00;2.25;;;;;;;23.66;59.28;101166.25;4999551;28;20455;-68
2023/08/13 08:17:42;;;;;;;11.13;2.58;;;;;;;23.19;60.07;101167.53;5034708;28;20115;-67
2023/08/13 08:20:10;;;;;;;8.10;2.53;;;;;;;23.28;61.27;101165.75;5033849;28;20049;-68
2023/08/13 08:22:37;;;;;;;5.18;2.50;;;;;;;23.44;60.18;101160.44;5031045;28;20073;-67
2023/08/13 08:25:09;;;;;;;6.38;2.15;;;;;;;23.54;59.62;101162.97;5025655;28;20107;-68
2023/08/13 08:28:25;;;;;;;15.68;3.17;;;;;;;23.60;60.35;101161.50;5015096;28;20063;-68
2023/08/13 08:31:40;;;;;;;10.80;2.75;;;;;;;23.60;60.67;101166.88;5034221;28;20060;-67
2023/08/13 08:34:08;;;;;;;8.55;2.80;;;;;;;23.73;59.91;101167.28;4998444;28;20049;-68
2023/08/13 08:36:35;;;;;;;11.73;3.33;;;;;;;23.89;59.58;101153.06;5019668;28;20102;-68
2023/08/13 08:39:03;;;;;;;8.13;2.80;;;;;;;24.14;58.57;101153.97;4998138;28;20095;-67
2023/08/13 08:41:31;;;;;;;11.88;2.80;;;;;;;24.33;58.75;101160.88;5030279;28;20045;-67
2023/08/13 08:43:59;;;;;;;6.68;2.45;;;;;;;24.28;56.32;101153.28;5031444;28;20069;-67
2023/08/13 08:46:27;;;;;;;5.97;2.17;;;;;;;24.12;57.41;101164.88;5020137;28;20076;-68
2023/08/13 08:48:57;;;;;;;7.18;2.03;;;;;;;23.89;54.59;101158.44;4995297;28;20112;-67
2023/08/13 08:51:26;;;;;;;9.57;2.90;;;;;;;23.75;55.68;101163.44;5022913;28;20054;-67
2023/08/13 08:53:55;;;;;;;6.13;2.08;;;;;;;23.98;54.94;101155.59;5008066;28;20045;-67
2023/08/13 08:56:25;;;;;;;9.02;2.67;;;;;;;24.28;55.24;101163.22;4990948;28;20756;-68
2023/08/13 08:58:53;;;;;;;7.63;2.78;;;;;;;24.53;54.08;101164.09;5030086;28;20447;-67
2023/08/13 09:01:22;;;;;;;9.23;3.05;;;;;;;24.63;54.82;101156.69;5023422;28;20049;-67
2023/08/13 09:03:51;;;;;;;8.82;2.50;;;;;;;24.48;53.33;101153.81;5009748;28;20065;-66
2023/08/13 09:06:20;;;;;;;6.57;2.17;;;;;;;24.63;52.91;101151.28;5030399;28;20517;-67
2023/08/13 09:08:52;;;;;;;5.97;2.30;;;;;;;24.59;52.48;101148.13;5025826;28;20045;-67
2023/08/13 09:11:20;;;;;;;7.47;2.40;;;;;;;24.64;52.35;101153.84;5011695;28;20061;-67
2023/08/13 09:13:49;;;;;;;9.57;2.50;;;;;;;24.82;52.03;101147.44;4995305;28;20666;-66
2023/08/13 09:16:19;;;;;;;7.53;2.20;;;;;;;24.65;51.87;101155.50;4993623;28;20119;-67
2023/08/13 09:18:52;;;;;;;8.23;2.55;;;;;;;24.85;52.29;101136.28;4996501;28;20099;-67
2023/08/13 09:25:02;;;;;;;6.45;2.60;;;;;;;24.67;49.43;101147.25;5026418;28;20034;-67
2023/08/13 09:27:33;;;;;;;8.15;2.47;;;;;;;24.83;51.01;101144.56;5008820;28;20045;-68
2023/08/13 09:30:01;;;;;;;8.23;2.50;;;;;;;24.61;49.63;101137.19;5027848;28;20057;-67
2023/08/13 09:32:32;;;;;;;6.30;1.90;;;;;;;24.66;50.19;101141.03;5006365;28;20088;-67
2023/08/13 09:35:03;;;;;;;6.25;2.00;;;;;;;24.87;49.70;101145.06;5034457;28;20475;-67
2023/08/13 09:37:32;;;;;;;6.95;2.42;;;;;;;24.81;48.96;101130.44;5023441;28;20793;-67
2023/08/13 09:40:01;;;;;;;7.93;2.40;;;;;;;24.91;48.79;101138.31;5011616;28;20057;-67
2023/08/13 09:42:32;;;;;;;4.63;2.05;;;;;;;25.02;48.96;101136.09;5031172;28;20163;-67
2023/08/13 09:45:03;;;;;;;5.95;2.30;;;;;;;25.28;48.88;101134.22;5030605;28;20051;-68
2023/08/13 09:47:33;;;;;;;7.25;1.90;;;;;;;24.94;48.22;101130.72;5007650;28;20172;-67
2023/08/13 09:50:02;;;;;;;7.53;1.90;;;;;;;25.23;49.31;101130.19;5027024;28;20088;-67
2023/08/13 09:52:31;;;;;;;5.97;2.03;;;;;;;25.32;47.91;101132.84;5010135;28;20136;-67
2023/08/13 09:55:08;;;;;;;7.47;2.05;;;;;;;25.53;46.95;101130.38;5009625;28;20057;-67
2023/08/13 09:57:38;;;;;;;6.32;2.22;;;;;;;25.65;46.96;101130.84;5033255;28;20045;-67
2023/08/13 10:00:08;;;;;;;5.60;2.17;;;;;;;25.95;47.01;101126.47;5011505;28;20049;-66
2023/08/13 10:02:40;;;;;;;4.25;2.05;;;;;;;26.09;47.40;101130.25;5000836;28;20057;-67
2023/08/13 10:05:09;;;;;;;5.15;1.92;;;;;;;25.94;46.75;101128.34;5009872;28;20045;-67
2023/08/13 10:07:39;;;;;;;7.03;2.10;;;;;;;26.19;46.35;101126.28;5009002;28;20037;-67
2023/08/13 10:10:08;;;;;;;7.97;2.47;;;;;;;26.40;46.07;101131.03;4995157;28;20072;-67
2023/08/13 10:12:37;;;;;;;5.28;2.03;;;;;;;26.61;45.26;101127.66;5008015;28;20065;-66
2023/08/13 10:15:05;;;;;;;5.88;1.95;;;;;;;26.84;45.04;101124.06;5028597;28;20052;-66
2023/08/13 10:18:23;;;;;;;6.65;1.98;;;;;;;26.81;42.81;101122.59;5007080;28;20053;-67
2023/08/13 10:21:43;;;;;;;5.38;2.30;;;;;;;27.09;43.82;101117.41;5030302;28;20541;-67
2023/08/13 10:24:12;;;;;;;6.15;2.25;;;;;;;27.40;43.66;101121.75;5006721;28;20148;-67
2023/08/13 10:26:45;;;;;;;5.50;1.92;;;;;;;27.62;43.26;101122.66;4993867;28;20069;-66
2023/08/13 10:29:16;;;;;;;6.95;2.20;;;;;;;27.65;41.88;101123.13;4992373;28;20115;-66
2023/08/13 10:32:10;;;;;;;5.68;2.22;;;;;;;27.59;42.21;101118.47;5011132;28;20057;-66
2023/08/13 10:34:50;;;;;;;;;;;;;;;27.42;42.74;101127.81;5009499;28;20075;-66
2023/08/13 10:37:18;;;;;;;8.80;2.50;;;;;;;27.66;42.63;101132.06;4990812;28;19947;-66
2023/08/13 10:39:47;;;;;;;6.45;1.98;;;;;;;27.43;41.00;101132.22;5006552;28;20065;-67
2023/08/13 10:42:27;;;;;;;10.13;2.17;;;;;;;27.19;40.86;101136.88;5008510;28;20065;-66
2023/08/13 10:45:04;;;;;;;6.32;2.45;;;;;;;27.19;40.34;101130.63;5023434;28;20088;-67
2023/08/13 10:47:38;;;;;;;7.95;2.45;;;;;;;26.94;40.55;101132.75;5024635;28;20045;-67
2023/08/13 10:50:07;;;;;;;8.98;2.55;;;;;;;27.19;41.01;101141.44;5027415;28;20049;-67
2023/08/13 10:52:35;;;;;;;5.35;1.98;;;;;;;27.40;41.04;101127.19;5005509;28;20084;-67
2023/08/13 10:55:03;;;;;;;5.97;2.30;;;;;;;27.54;40.56;101139.84;5007608;28;20381;-67
2023/08/13 10:57:31;;;;;;;7.93;2.63;;;;;;;27.75;40.71;101134.50;5025887;28;20456;-67
2023/08/13 10:59:58;;;;;;;6.32;2.20;;;;;;;28.16;41.13;101133.06;5016382;28;20124;-66
2023/08/13 11:02:28;;;;;;;6.15;2.08;;;;;;;28.20;39.46;101131.66;5006958;28;20182;-67
2023/08/13 11:04:56;;;;;;;4.93;1.98;;;;;;;28.09;39.18;101132.97;5024935;28;20058;-67
2023/08/13 11:07:23;;;;;;;6.72;2.10;;;;;;;27.36;40.37;101142.94;4989851;28;20115;-67
2023/08/13 11:09:51;;;;;;;5.78;2.15;;;;;;;26.96;40.76;101144.19;5003766;28;20033;-67
2023/08/13 11:12:19;;;;;;;7.72;2.47;;;;;;;27.11;40.47;101133.41;4973070;28;20145;-67
2023/08/13 11:14:46;;;;;;;3.92;2.08;;;;;;;27.12;40.47;101130.56;5011277;28;20084;-67
2023/08/13 11:20:07;;;;;;;4.93;1.90;;;;;;;27.85;38.87;101136.91;5016162;28;20044;-67
2023/08/13 11:22:34;;;;;;;4.18;1.85;;;;;;;27.69;38.19;101134.38;5012741;28;20463;-67
2023/08/13 11:25:01;;;;;;;3.28;2.08;;;;;;;27.63;39.88;101140.56;5022507;28;20085;-68
2023/08/13 11:27:29;;;;;;;6.53;2.17;;;;;;;27.38;39.90;101123.81;5006367;28;20445;-67
2023/08/13 11:29:58;;;;;;;4.38;2.03;;;;;;;27.68;39.80;101130.00;4992420;28;20057;-67
2023/08/13 11:32:25;;;;;;;4.38;2.35;;;;;;;27.83;38.65;101127.28;5026907;28;20053;-68
2023/08/13 11:34:53;;;;;;;8.52;2.40;;;;;;;27.59;39.69;101128.44;5027174;28;20206;-68
2023/08/13 11:37:20;;;;;;;5.93;2.42;;;;;;;27.55;40.13;101121.72;5026395;28;20496;-68
2023/08/13 11:39:48;;;;;;;4.53;2.60;;;;;;;27.97;40.04;101113.72;4994157;28;20096;-67
2023/08/13 11:42:15;;;;;;;7.00;2.33;;;;;;;28.41;39.82;101122.69;5026285;28;20065;-67
2023/08/13 11:44:47;;;;;;;7.75;2.30;;;;;;;28.41;38.01;101120.81;5008414;28;20159;-68
2023/08/13 11:47:28;;;;;;;7.38;1.88;;;;;;;28.77;38.41;101118.00;5020097;28;20077;-68